sensor_id;sensor_type;location;lat;lon;timestamp;pressure;altitude;pressure_sealevel;temperature;humidity
59650;BME280;46162;57.568;25.814;2023-04-08T00:01:08;101892.81;;;1.08;100.00
59650;BME280;46162;57.568;25.814;2023-04-08T00:03:36;101894.09;;;0.98;100.00
59650;BME280;46162;57.568;25.814;2023-04-08T00:06:05;101897.03;;;0.92;100.00
59650;BME280;46162;57.568;25.814;2023-04-08T00:08:34;101887.44;;;0.88;100.00
59650;BME280;46162;57.568;25.814;2023-04-08T00:11:02;101886.75;;;0.83;100.00
59650;BME280;46162;57.568;25.814;2023-04-08T00:13:30;101887.72;;;0.80;100.00
59650;BME280;46162;57.568;25.814;2023-04-08T00:16:00;101888.66;;;0.79;100.00
59650;BME280;46162;57.568;25.814;2023-04-08T00:18:29;101883.28;;;0.81;100.00
59650;BME280;46162;57.568;25.814;2023-04-08T00:20:57;101898.38;;;0.80;100.00
59650;BME280;46162;57.568;25.814;2023-04-08T00:23:25;101896.56;;;0.81;100.00
59650;BME280;46162;57.568;25.814;2023-04-08T00:25:53;101887.59;;;0.83;100.00
59650;BME280;46162;57.568;25.814;2023-04-08T00:28:21;101884.91;;;0.85;100.00
59650;BME280;46162;57.568;25.814;2023-04-08T00:30:49;101893.97;;;0.79;100.00
59650;BME280;46162;57.568;25.814;2023-04-08T00:33:21;101888.03;;;0.73;100.00
59650;BME280;46162;57.568;25.814;2023-04-08T00:35:51;101888.94;;;0.72;100.00
59650;BME280;46162;57.568;25.814;2023-04-08T00:38:19;101894.25;;;0.72;100.00
59650;BME280;46162;57.568;25.814;2023-04-08T00:40:48;101893.63;;;0.65;100.00
59650;BME280;46162;57.568;25.814;2023-04-08T00:43:16;101887.56;;;0.61;100.00
59650;BME280;46162;57.568;25.814;2023-04-08T00:45:46;101889.53;;;0.56;100.00
59650;BME280;46162;57.568;25.814;2023-04-08T00:48:15;101882.72;;;0.49;100.00
59650;BME280;46162;57.568;25.814;2023-04-08T00:50:45;101881.19;;;0.42;100.00
59650;BME280;46162;57.568;25.814;2023-04-08T00:53:14;101883.28;;;0.34;100.00
59650;BME280;46162;57.568;25.814;2023-04-08T00:55:43;101881.78;;;0.27;100.00
59650;BME280;46162;57.568;25.814;2023-04-08T00:58:11;101885.50;;;0.23;100.00
59650;BME280;46162;57.568;25.814;2023-04-08T01:00:41;101882.63;;;0.27;100.00
59650;BME280;46162;57.568;25.814;2023-04-08T01:03:12;101882.59;;;0.29;100.00
59650;BME280;46162;57.568;25.814;2023-04-08T01:05:44;101879.13;;;0.27;100.00
59650;BME280;46162;57.568;25.814;2023-04-08T01:08:17;101883.91;;;0.17;100.00
59650;BME280;46162;57.568;25.814;2023-04-08T01:10:46;101882.34;;;0.11;100.00
59650;BME280;46162;57.568;25.814;2023-04-08T01:13:17;101884.25;;;0.08;100.00
59650;BME280;46162;57.568;25.814;2023-04-08T01:15:48;101884.19;;;0.09;100.00
59650;BME280;46162;57.568;25.814;2023-04-08T01:18:17;101884.13;;;0.11;100.00
59650;BME280;46162;57.568;25.814;2023-04-08T01:20:46;101885.25;;;0.05;100.00
59650;BME280;46162;57.568;25.814;2023-04-08T01:23:17;101890.47;;;0.07;100.00
59650;BME280;46162;57.568;25.814;2023-04-08T01:25:50;101893.53;;;-0.04;100.00
59650;BME280;46162;57.568;25.814;2023-04-08T01:28:18;101886.97;;;-0.19;100.00
59650;BME280;46162;57.568;25.814;2023-04-08T01:30:47;101893.00;;;-0.15;100.00
59650;BME280;46162;57.568;25.814;2023-04-08T01:33:17;101888.84;;;-0.23;100.00
59650;BME280;46162;57.568;25.814;2023-04-08T01:35:46;101889.03;;;-0.27;100.00
59650;BME280;46162;57.568;25.814;2023-04-08T01:38:15;101886.97;;;-0.46;100.00
59650;BME280;46162;57.568;25.814;2023-04-08T01:40:45;101887.84;;;-0.45;100.00
59650;BME280;46162;57.568;25.814;2023-04-08T01:43:15;101886.22;;;-0.49;100.00
59650;BME280;46162;57.568;25.814;2023-04-08T01:45:45;101879.16;;;-0.50;100.00
59650;BME280;46162;57.568;25.814;2023-04-08T01:48:13;101880.69;;;-0.43;100.00
59650;BME280;46162;57.568;25.814;2023-04-08T01:50:43;101883.63;;;-0.51;100.00
59650;BME280;46162;57.568;25.814;2023-04-08T01:53:12;101882.22;;;-0.36;100.00
59650;BME280;46162;57.568;25.814;2023-04-08T01:55:40;101876.53;;;-0.50;100.00
59650;BME280;46162;57.568;25.814;2023-04-08T01:58:13;101892.91;;;-0.64;100.00
59650;BME280;46162;57.568;25.814;2023-04-08T02:00:46;101880.81;;;-0.73;100.00
59650;BME280;46162;57.568;25.814;2023-04-08T02:03:16;101890.03;;;-0.84;100.00
59650;BME280;46162;57.568;25.814;2023-04-08T02:05:46;101884.47;;;-0.77;100.00
59650;BME280;46162;57.568;25.814;2023-04-08T02:08:14;101889.84;;;-0.78;100.00
59650;BME280;46162;57.568;25.814;2023-04-08T02:10:42;101892.50;;;-0.78;100.00
59650;BME280;46162;57.568;25.814;2023-04-08T02:13:11;101888.91;;;-0.77;100.00
59650;BME280;46162;57.568;25.814;2023-04-08T02:15:40;101893.34;;;-0.78;100.00
59650;BME280;46162;57.568;25.814;2023-04-08T02:18:14;101899.59;;;-0.79;100.00
59650;BME280;46162;57.568;25.814;2023-04-08T02:20:46;101888.34;;;-0.87;100.00
59650;BME280;46162;57.568;25.814;2023-04-08T02:23:18;101899.88;;;-0.88;100.00
59650;BME280;46162;57.568;25.814;2023-04-08T02:25:47;101893.72;;;-0.89;100.00
59650;BME280;46162;57.568;25.814;2023-04-08T02:28:16;101892.16;;;-0.96;100.00
59650;BME280;46162;57.568;25.814;2023-04-08T02:30:47;101893.22;;;-1.01;100.00
59650;BME280;46162;57.568;25.814;2023-04-08T02:33:18;101890.63;;;-1.03;100.00
59650;BME280;46162;57.568;25.814;2023-04-08T02:35:47;101894.97;;;-1.00;100.00
59650;BME280;46162;57.568;25.814;2023-04-08T02:38:15;101890.97;;;-1.14;100.00
59650;BME280;46162;57.568;25.814;2023-04-08T02:40:44;101891.41;;;-1.29;100.00
59650;BME280;46162;57.568;25.814;2023-04-08T02:43:12;101885.00;;;-1.22;100.00
59650;BME280;46162;57.568;25.814;2023-04-08T02:45:40;101886.81;;;-1.22;100.00
59650;BME280;46162;57.568;25.814;2023-04-08T02:48:09;101891.25;;;-1.23;100.00
59650;BME280;46162;57.568;25.814;2023-04-08T02:50:39;101894.16;;;-1.32;100.00
59650;BME280;46162;57.568;25.814;2023-04-08T02:53:07;101888.84;;;-1.32;100.00
59650;BME280;46162;57.568;25.814;2023-04-08T02:55:36;101894.00;;;-1.26;100.00
59650;BME280;46162;57.568;25.814;2023-04-08T02:58:05;101888.69;;;-1.26;100.00
59650;BME280;46162;57.568;25.814;2023-04-08T03:00:33;101886.81;;;-1.22;100.00
59650;BME280;46162;57.568;25.814;2023-04-08T03:03:03;101887.72;;;-1.23;100.00
59650;BME280;46162;57.568;25.814;2023-04-08T03:05:32;101886.84;;;-1.24;100.00
59650;BME280;46162;57.568;25.814;2023-04-08T03:08:02;101883.16;;;-1.18;100.00
59650;BME280;46162;57.568;25.814;2023-04-08T03:10:32;101886.66;;;-1.18;100.00
59650;BME280;46162;57.568;25.814;2023-04-08T03:13:04;101893.78;;;-1.20;100.00
59650;BME280;46162;57.568;25.814;2023-04-08T03:15:32;101888.53;;;-1.21;100.00
59650;BME280;46162;57.568;25.814;2023-04-08T03:18:01;101895.34;;;-1.13;100.00
59650;BME280;46162;57.568;25.814;2023-04-08T03:20:29;101888.38;;;-1.17;100.00
59650;BME280;46162;57.568;25.814;2023-04-08T03:22:58;101890.22;;;-1.19;100.00
59650;BME280;46162;57.568;25.814;2023-04-08T03:25:28;101891.59;;;-1.05;100.00
59650;BME280;46162;57.568;25.814;2023-04-08T03:27:57;101890.13;;;-0.88;100.00
59650;BME280;46162;57.568;25.814;2023-04-08T03:30:26;101890.13;;;-0.88;100.00
59650;BME280;46162;57.568;25.814;2023-04-08T03:32:54;101888.72;;;-0.71;100.00
59650;BME280;46162;57.568;25.814;2023-04-08T03:35:23;101892.59;;;-0.81;100.00
59650;BME280;46162;57.568;25.814;2023-04-08T03:37:51;101903.00;;;-0.75;100.00
59650;BME280;46162;57.568;25.814;2023-04-08T03:40:21;101904.34;;;-0.90;100.00
59650;BME280;46162;57.568;25.814;2023-04-08T03:42:50;101900.22;;;-0.99;100.00
59650;BME280;46162;57.568;25.814;2023-04-08T03:45:19;101898.53;;;-1.01;100.00
59650;BME280;46162;57.568;25.814;2023-04-08T03:47:47;101908.38;;;-1.06;100.00
59650;BME280;46162;57.568;25.814;2023-04-08T03:50:16;101898.22;;;-1.20;100.00
59650;BME280;46162;57.568;25.814;2023-04-08T03:52:44;101908.72;;;-1.17;100.00
59650;BME280;46162;57.568;25.814;2023-04-08T03:55:12;101905.22;;;-1.18;100.00
59650;BME280;46162;57.568;25.814;2023-04-08T03:57:41;101913.34;;;-1.24;100.00
59650;BME280;46162;57.568;25.814;2023-04-08T04:00:12;101911.94;;;-1.36;100.00
59650;BME280;46162;57.568;25.814;2023-04-08T04:02:43;101916.41;;;-1.38;100.00
59650;BME280;46162;57.568;25.814;2023-04-08T04:05:11;101913.63;;;-1.33;100.00
59650;BME280;46162;57.568;25.814;2023-04-08T04:07:40;101920.66;;;-1.32;100.00
59650;BME280;46162;57.568;25.814;2023-04-08T04:10:08;101917.97;;;-1.31;100.00
59650;BME280;46162;57.568;25.814;2023-04-08T04:12:37;101925.78;;;-1.26;100.00
59650;BME280;46162;57.568;25.814;2023-04-08T04:15:06;101924.97;;;-1.28;100.00
59650;BME280;46162;57.568;25.814;2023-04-08T04:17:36;101926.78;;;-1.30;100.00
59650;BME280;46162;57.568;25.814;2023-04-08T04:20:05;101930.38;;;-1.33;100.00
59650;BME280;46162;57.568;25.814;2023-04-08T04:22:34;101931.09;;;-1.26;100.00
59650;BME280;46162;57.568;25.814;2023-04-08T04:25:02;101931.69;;;-1.16;100.00
59650;BME280;46162;57.568;25.814;2023-04-08T04:27:30;101932.44;;;-1.13;100.00
59650;BME280;46162;57.568;25.814;2023-04-08T04:29:59;101928.72;;;-1.07;100.00
59650;BME280;46162;57.568;25.814;2023-04-08T04:32:28;101929.69;;;-1.10;100.00
59650;BME280;46162;57.568;25.814;2023-04-08T04:34:57;101933.16;;;-1.08;100.00
59650;BME280;46162;57.568;25.814;2023-04-08T04:37:26;101944.31;;;-0.96;100.00
59650;BME280;46162;57.568;25.814;2023-04-08T04:39:54;101936.16;;;-0.90;100.00
59650;BME280;46162;57.568;25.814;2023-04-08T04:42:22;101945.78;;;-0.86;100.00
59650;BME280;46162;57.568;25.814;2023-04-08T04:44:51;101946.00;;;-0.66;100.00
59650;BME280;46162;57.568;25.814;2023-04-08T04:47:20;101941.41;;;-0.60;100.00
59650;BME280;46162;57.568;25.814;2023-04-08T04:49:48;101944.88;;;-0.58;100.00
59650;BME280;46162;57.568;25.814;2023-04-08T04:52:18;101945.38;;;-0.47;100.00
59650;BME280;46162;57.568;25.814;2023-04-08T04:54:46;101949.50;;;-0.37;100.00
59650;BME280;46162;57.568;25.814;2023-04-08T04:57:15;101948.31;;;-0.28;100.00
59650;BME280;46162;57.568;25.814;2023-04-08T04:59:43;101947.16;;;-0.19;100.00
59650;BME280;46162;57.568;25.814;2023-04-08T05:02:11;101946.72;;;-0.07;100.00
59650;BME280;46162;57.568;25.814;2023-04-08T05:04:40;101949.00;;;0.04;100.00
59650;BME280;46162;57.568;25.814;2023-04-08T05:07:08;101947.88;;;0.11;100.00
59650;BME280;46162;57.568;25.814;2023-04-08T05:09:38;101942.34;;;0.17;100.00
59650;BME280;46162;57.568;25.814;2023-04-08T05:12:06;101944.56;;;0.29;100.00
59650;BME280;46162;57.568;25.814;2023-04-08T05:14:34;101948.97;;;0.30;100.00
59650;BME280;46162;57.568;25.814;2023-04-08T05:17:03;101948.59;;;0.39;100.00
59650;BME280;46162;57.568;25.814;2023-04-08T05:19:32;101944.97;;;0.42;100.00
59650;BME280;46162;57.568;25.814;2023-04-08T05:22:00;101943.09;;;0.46;100.00
59650;BME280;46162;57.568;25.814;2023-04-08T05:24:29;101953.31;;;0.56;100.00
59650;BME280;46162;57.568;25.814;2023-04-08T05:27:00;101937.84;;;0.68;100.00
59650;BME280;46162;57.568;25.814;2023-04-08T05:29:28;101940.66;;;0.86;100.00
59650;BME280;46162;57.568;25.814;2023-04-08T05:31:56;101945.28;;;1.05;100.00
59650;BME280;46162;57.568;25.814;2023-04-08T05:34:25;101943.94;;;1.17;100.00
59650;BME280;46162;57.568;25.814;2023-04-08T05:36:53;101946.19;;;1.26;100.00
59650;BME280;46162;57.568;25.814;2023-04-08T05:39:21;101946.78;;;1.34;100.00
59650;BME280;46162;57.568;25.814;2023-04-08T05:41:50;101953.97;;;1.54;100.00
59650;BME280;46162;57.568;25.814;2023-04-08T05:44:20;101941.28;;;1.61;100.00
59650;BME280;46162;57.568;25.814;2023-04-08T05:46:48;101948.13;;;1.66;100.00
59650;BME280;46162;57.568;25.814;2023-04-08T05:49:17;101952.50;;;1.67;100.00
59650;BME280;46162;57.568;25.814;2023-04-08T05:51:48;101950.09;;;1.83;100.00
59650;BME280;46162;57.568;25.814;2023-04-08T05:54:17;101951.16;;;2.00;100.00
59650;BME280;46162;57.568;25.814;2023-04-08T05:56:45;101944.81;;;2.02;100.00
59650;BME280;46162;57.568;25.814;2023-04-08T05:59:14;101952.38;;;2.13;100.00
59650;BME280;46162;57.568;25.814;2023-04-08T06:01:44;101952.03;;;2.21;100.00
59650;BME280;46162;57.568;25.814;2023-04-08T06:04:12;101955.03;;;2.33;100.00
59650;BME280;46162;57.568;25.814;2023-04-08T06:06:43;101953.03;;;2.39;100.00
59650;BME280;46162;57.568;25.814;2023-04-08T06:09:11;101954.63;;;2.62;100.00
59650;BME280;46162;57.568;25.814;2023-04-08T06:11:43;101950.31;;;2.59;100.00
59650;BME280;46162;57.568;25.814;2023-04-08T06:14:29;101952.38;;;2.73;100.00
59650;BME280;46162;57.568;25.814;2023-04-08T06:16:57;101959.44;;;2.93;100.00
59650;BME280;46162;57.568;25.814;2023-04-08T06:19:25;101966.66;;;3.10;100.00
59650;BME280;46162;57.568;25.814;2023-04-08T06:21:54;101963.31;;;3.23;100.00
59650;BME280;46162;57.568;25.814;2023-04-08T06:24:24;101968.38;;;3.30;100.00
59650;BME280;46162;57.568;25.814;2023-04-08T06:26:53;101967.47;;;3.48;100.00
59650;BME280;46162;57.568;25.814;2023-04-08T06:29:22;101963.56;;;3.55;100.00
59650;BME280;46162;57.568;25.814;2023-04-08T06:31:51;101969.66;;;3.59;100.00
59650;BME280;46162;57.568;25.814;2023-04-08T06:34:20;101966.13;;;3.76;100.00
59650;BME280;46162;57.568;25.814;2023-04-08T06:36:48;101970.22;;;4.00;100.00
59650;BME280;46162;57.568;25.814;2023-04-08T06:39:17;101967.53;;;4.18;100.00
59650;BME280;46162;57.568;25.814;2023-04-08T06:41:47;101971.34;;;4.14;100.00
59650;BME280;46162;57.568;25.814;2023-04-08T06:44:31;101963.06;;;4.36;100.00
59650;BME280;46162;57.568;25.814;2023-04-08T06:47:00;101973.03;;;4.49;100.00
59650;BME280;46162;57.568;25.814;2023-04-08T06:49:29;101966.75;;;4.50;100.00
59650;BME280;46162;57.568;25.814;2023-04-08T06:51:57;101970.19;;;4.70;100.00
59650;BME280;46162;57.568;25.814;2023-04-08T06:54:26;101966.06;;;4.80;100.00
59650;BME280;46162;57.568;25.814;2023-04-08T06:56:54;101972.28;;;4.96;100.00
59650;BME280;46162;57.568;25.814;2023-04-08T06:59:22;101978.16;;;5.19;100.00
59650;BME280;46162;57.568;25.814;2023-04-08T07:01:50;101970.84;;;5.23;100.00
59650;BME280;46162;57.568;25.814;2023-04-08T07:04:20;101971.63;;;5.25;100.00
59650;BME280;46162;57.568;25.814;2023-04-08T07:06:49;101975.16;;;5.41;100.00
59650;BME280;46162;57.568;25.814;2023-04-08T07:09:17;101982.31;;;5.72;100.00
59650;BME280;46162;57.568;25.814;2023-04-08T07:11:45;101979.38;;;5.61;100.00
59650;BME280;46162;57.568;25.814;2023-04-08T07:14:13;101981.06;;;5.78;100.00
59650;BME280;46162;57.568;25.814;2023-04-08T07:16:42;101979.88;;;5.84;100.00
59650;BME280;46162;57.568;25.814;2023-04-08T07:19:10;101983.50;;;5.98;100.00
59650;BME280;46162;57.568;25.814;2023-04-08T07:21:40;101974.63;;;6.12;100.00
59650;BME280;46162;57.568;25.814;2023-04-08T07:24:08;101980.13;;;6.25;100.00
59650;BME280;46162;57.568;25.814;2023-04-08T07:26:37;101979.25;;;6.24;100.00
59650;BME280;46162;57.568;25.814;2023-04-08T07:29:05;101974.88;;;6.38;100.00
59650;BME280;46162;57.568;25.814;2023-04-08T07:31:33;101982.00;;;6.53;100.00
59650;BME280;46162;57.568;25.814;2023-04-08T07:34:02;101978.72;;;6.62;100.00
59650;BME280;46162;57.568;25.814;2023-04-08T07:36:30;101970.31;;;6.68;100.00
59650;BME280;46162;57.568;25.814;2023-04-08T07:38:59;101973.78;;;6.71;100.00
59650;BME280;46162;57.568;25.814;2023-04-08T07:41:28;101975.88;;;6.80;100.00
59650;BME280;46162;57.568;25.814;2023-04-08T07:43:56;101981.31;;;7.07;100.00
59650;BME280;46162;57.568;25.814;2023-04-08T07:46:24;101976.44;;;6.99;100.00
59650;BME280;46162;57.568;25.814;2023-04-08T07:48:53;101971.31;;;7.23;100.00
59650;BME280;46162;57.568;25.814;2023-04-08T07:51:21;101977.56;;;7.24;100.00
59650;BME280;46162;57.568;25.814;2023-04-08T07:53:49;101976.13;;;7.32;100.00
59650;BME280;46162;57.568;25.814;2023-04-08T07:56:19;101974.25;;;7.47;100.00
59650;BME280;46162;57.568;25.814;2023-04-08T07:58:48;101978.66;;;7.48;100.00
59650;BME280;46162;57.568;25.814;2023-04-08T08:01:20;101974.66;;;7.68;100.00
59650;BME280;46162;57.568;25.814;2023-04-08T08:03:48;101972.22;;;7.78;100.00
59650;BME280;46162;57.568;25.814;2023-04-08T08:06:18;101972.97;;;7.80;100.00
59650;BME280;46162;57.568;25.814;2023-04-08T08:08:46;101974.84;;;7.92;100.00
59650;BME280;46162;57.568;25.814;2023-04-08T08:11:15;101965.31;;;8.01;100.00
59650;BME280;46162;57.568;25.814;2023-04-08T08:13:44;101976.28;;;8.11;100.00
59650;BME280;46162;57.568;25.814;2023-04-08T08:16:13;101964.66;;;8.10;100.00
59650;BME280;46162;57.568;25.814;2023-04-08T08:18:41;101959.84;;;8.28;100.00
59650;BME280;46162;57.568;25.814;2023-04-08T08:21:11;101965.03;;;8.31;100.00
59650;BME280;46162;57.568;25.814;2023-04-08T08:23:39;101956.84;;;8.20;100.00
59650;BME280;46162;57.568;25.814;2023-04-08T08:26:07;101964.22;;;8.44;100.00
59650;BME280;46162;57.568;25.814;2023-04-08T08:28:36;101966.59;;;8.48;100.00
59650;BME280;46162;57.568;25.814;2023-04-08T08:31:06;101960.56;;;8.45;100.00
59650;BME280;46162;57.568;25.814;2023-04-08T08:33:34;101963.22;;;8.70;100.00
59650;BME280;46162;57.568;25.814;2023-04-08T08:36:03;101961.53;;;8.69;100.00
59650;BME280;46162;57.568;25.814;2023-04-08T08:38:32;101961.97;;;8.76;100.00
59650;BME280;46162;57.568;25.814;2023-04-08T08:41:01;101957.00;;;8.70;100.00
59650;BME280;46162;57.568;25.814;2023-04-08T08:43:30;101953.34;;;8.83;100.00
59650;BME280;46162;57.568;25.814;2023-04-08T08:45:59;101950.41;;;8.87;100.00
59650;BME280;46162;57.568;25.814;2023-04-08T08:48:29;101950.78;;;9.19;100.00
59650;BME280;46162;57.568;25.814;2023-04-08T08:50:58;101952.66;;;9.06;100.00
59650;BME280;46162;57.568;25.814;2023-04-08T08:53:28;101955.59;;;9.26;100.00
59650;BME280;46162;57.568;25.814;2023-04-08T08:56:00;101949.97;;;9.30;100.00
59650;BME280;46162;57.568;25.814;2023-04-08T08:58:31;101949.06;;;9.42;100.00
59650;BME280;46162;57.568;25.814;2023-04-08T09:01:00;101941.13;;;9.40;100.00
59650;BME280;46162;57.568;25.814;2023-04-08T09:03:30;101945.28;;;9.44;100.00
59650;BME280;46162;57.568;25.814;2023-04-08T09:05:59;101938.94;;;9.45;100.00
59650;BME280;46162;57.568;25.814;2023-04-08T09:08:28;101950.34;;;9.73;100.00
59650;BME280;46162;57.568;25.814;2023-04-08T09:11:09;101944.56;;;9.66;100.00
59650;BME280;46162;57.568;25.814;2023-04-08T09:13:38;101942.50;;;9.70;100.00
59650;BME280;46162;57.568;25.814;2023-04-08T09:16:07;101938.47;;;9.76;100.00
59650;BME280;46162;57.568;25.814;2023-04-08T09:18:37;101933.50;;;9.94;100.00
59650;BME280;46162;57.568;25.814;2023-04-08T09:21:06;101931.06;;;9.90;100.00
59650;BME280;46162;57.568;25.814;2023-04-08T09:23:38;101935.16;;;10.07;100.00
59650;BME280;46162;57.568;25.814;2023-04-08T09:26:07;101932.78;;;9.92;100.00
59650;BME280;46162;57.568;25.814;2023-04-08T09:28:36;101927.47;;;10.14;96.56
59650;BME280;46162;57.568;25.814;2023-04-08T09:31:17;101930.28;;;10.12;100.00
59650;BME280;46162;57.568;25.814;2023-04-08T09:33:48;101929.75;;;10.43;100.00
59650;BME280;46162;57.568;25.814;2023-04-08T09:36:17;101923.75;;;10.50;100.00
59650;BME280;46162;57.568;25.814;2023-04-08T09:38:45;101930.75;;;10.64;93.62
59650;BME280;46162;57.568;25.814;2023-04-08T09:41:15;101926.84;;;10.68;100.00
59650;BME280;46162;57.568;25.814;2023-04-08T09:43:46;101925.72;;;10.82;95.95
59650;BME280;46162;57.568;25.814;2023-04-08T09:46:16;101927.56;;;10.70;99.33
59650;BME280;46162;57.568;25.814;2023-04-08T09:48:49;101925.47;;;10.85;100.00
59650;BME280;46162;57.568;25.814;2023-04-08T09:51:18;101929.78;;;10.76;100.00
59650;BME280;46162;57.568;25.814;2023-04-08T09:53:47;101921.66;;;10.99;100.00
59650;BME280;46162;57.568;25.814;2023-04-08T09:56:17;101919.81;;;11.00;100.00
59650;BME280;46162;57.568;25.814;2023-04-08T09:58:50;101933.06;;;11.03;80.26
59650;BME280;46162;57.568;25.814;2023-04-08T10:01:21;101924.25;;;11.01;95.81
59650;BME280;46162;57.568;25.814;2023-04-08T10:03:54;101921.25;;;11.15;100.00
59650;BME280;46162;57.568;25.814;2023-04-08T10:06:26;101924.31;;;11.22;100.00
59650;BME280;46162;57.568;25.814;2023-04-08T10:08:57;101923.38;;;11.11;94.04
59650;BME280;46162;57.568;25.814;2023-04-08T10:11:26;101919.66;;;11.24;83.04
59650;BME280;46162;57.568;25.814;2023-04-08T10:13:54;101914.34;;;11.33;100.00
59650;BME280;46162;57.568;25.814;2023-04-08T10:16:23;101910.19;;;11.29;100.00
59650;BME280;46162;57.568;25.814;2023-04-08T10:18:54;101911.09;;;11.51;90.28
59650;BME280;46162;57.568;25.814;2023-04-08T10:21:38;101905.69;;;11.51;88.98
59650;BME280;46162;57.568;25.814;2023-04-08T10:24:09;101913.28;;;11.57;94.14
59650;BME280;46162;57.568;25.814;2023-04-08T10:26:38;101907.16;;;11.55;97.23
59650;BME280;46162;57.568;25.814;2023-04-08T10:32:08;101907.00;;;11.68;95.19
59650;BME280;46162;57.568;25.814;2023-04-08T10:34:56;101906.06;;;11.90;81.57
59650;BME280;46162;57.568;25.814;2023-04-08T10:37:24;101891.41;;;12.13;79.80
59650;BME280;46162;57.568;25.814;2023-04-08T10:39:53;101905.78;;;11.93;100.00
59650;BME280;46162;57.568;25.814;2023-04-08T10:42:26;101899.53;;;11.81;100.00
59650;BME280;46162;57.568;25.814;2023-04-08T10:44:58;101899.16;;;11.86;75.28
59650;BME280;46162;57.568;25.814;2023-04-08T10:47:27;101890.56;;;11.80;100.00
59650;BME280;46162;57.568;25.814;2023-04-08T10:49:57;101894.06;;;11.71;89.11
59650;BME280;46162;57.568;25.814;2023-04-08T10:52:28;101894.69;;;11.63;100.00
59650;BME280;46162;57.568;25.814;2023-04-08T10:54:56;101886.00;;;11.60;99.70
59650;BME280;46162;57.568;25.814;2023-04-08T10:57:24;101877.22;;;11.68;100.00
59650;BME280;46162;57.568;25.814;2023-04-08T10:59:53;101877.03;;;11.80;100.00
59650;BME280;46162;57.568;25.814;2023-04-08T11:02:22;101882.75;;;11.98;100.00
59650;BME280;46162;57.568;25.814;2023-04-08T11:04:52;101876.50;;;11.98;95.45
59650;BME280;46162;57.568;25.814;2023-04-08T11:07:24;101870.59;;;12.35;83.34
59650;BME280;46162;57.568;25.814;2023-04-08T11:09:52;101873.63;;;12.51;88.42
59650;BME280;46162;57.568;25.814;2023-04-08T11:12:21;101874.66;;;12.50;98.06
59650;BME280;46162;57.568;25.814;2023-04-08T11:14:50;101879.63;;;12.45;93.71
59650;BME280;46162;57.568;25.814;2023-04-08T11:17:19;101877.31;;;12.40;72.68
59650;BME280;46162;57.568;25.814;2023-04-08T11:19:48;101874.88;;;12.37;98.72
59650;BME280;46162;57.568;25.814;2023-04-08T11:22:17;101885.25;;;12.32;98.29
59650;BME280;46162;57.568;25.814;2023-04-08T11:24:47;101872.50;;;12.44;84.28
59650;BME280;46162;57.568;25.814;2023-04-08T11:27:16;101881.38;;;12.25;97.17
59650;BME280;46162;57.568;25.814;2023-04-08T11:29:44;101874.03;;;12.37;93.67
59650;BME280;46162;57.568;25.814;2023-04-08T11:32:15;101868.50;;;12.48;71.48
59650;BME280;46162;57.568;25.814;2023-04-08T11:34:44;101862.06;;;12.80;69.99
59650;BME280;46162;57.568;25.814;2023-04-08T11:37:13;101868.06;;;12.74;78.25
59650;BME280;46162;57.568;25.814;2023-04-08T11:39:42;101875.09;;;12.55;100.00
59650;BME280;46162;57.568;25.814;2023-04-08T11:45:10;101864.06;;;12.78;100.00
59650;BME280;46162;57.568;25.814;2023-04-08T11:47:39;101867.28;;;12.62;100.00
59650;BME280;46162;57.568;25.814;2023-04-08T11:50:07;101867.63;;;12.68;79.11
59650;BME280;46162;57.568;25.814;2023-04-08T11:52:42;101866.56;;;12.60;70.42
59650;BME280;46162;57.568;25.814;2023-04-08T11:55:11;101865.22;;;12.44;70.90
59650;BME280;46162;57.568;25.814;2023-04-08T11:57:39;101863.72;;;12.31;90.97
59650;BME280;46162;57.568;25.814;2023-04-08T12:00:10;101859.03;;;12.33;76.39
59650;BME280;46162;57.568;25.814;2023-04-08T12:02:38;101852.41;;;12.46;83.76
59650;BME280;46162;57.568;25.814;2023-04-08T12:05:07;101862.34;;;12.46;76.24
59650;BME280;46162;57.568;25.814;2023-04-08T12:07:36;101867.59;;;12.38;67.28
59650;BME280;46162;57.568;25.814;2023-04-08T12:10:05;101861.28;;;12.27;88.09
59650;BME280;46162;57.568;25.814;2023-04-08T12:12:33;101863.09;;;12.17;81.14
59650;BME280;46162;57.568;25.814;2023-04-08T12:15:02;101862.88;;;12.30;85.89
59650;BME280;46162;57.568;25.814;2023-04-08T12:17:31;101861.81;;;12.21;72.68
59650;BME280;46162;57.568;25.814;2023-04-08T12:20:00;101860.16;;;12.30;66.27
59650;BME280;46162;57.568;25.814;2023-04-08T12:22:29;101853.28;;;12.26;100.00
59650;BME280;46162;57.568;25.814;2023-04-08T12:24:58;101857.00;;;12.25;87.81
59650;BME280;46162;57.568;25.814;2023-04-08T12:27:28;101849.66;;;12.37;98.36
59650;BME280;46162;57.568;25.814;2023-04-08T12:29:59;101855.41;;;12.22;100.00
59650;BME280;46162;57.568;25.814;2023-04-08T12:32:27;101849.38;;;12.40;88.64
59650;BME280;46162;57.568;25.814;2023-04-08T12:34:57;101847.03;;;12.56;87.66
59650;BME280;46162;57.568;25.814;2023-04-08T12:37:26;101845.59;;;12.31;97.11
59650;BME280;46162;57.568;25.814;2023-04-08T12:39:54;101832.28;;;12.39;75.06
59650;BME280;46162;57.568;25.814;2023-04-08T12:42:22;101842.88;;;12.52;100.00
59650;BME280;46162;57.568;25.814;2023-04-08T12:44:50;101831.53;;;12.37;96.93
59650;BME280;46162;57.568;25.814;2023-04-08T12:47:19;101832.88;;;12.53;81.87
59650;BME280;46162;57.568;25.814;2023-04-08T12:49:49;101837.09;;;12.36;86.42
59650;BME280;46162;57.568;25.814;2023-04-08T12:53:57;101828.63;;;12.60;89.34